createdAt,value
2023-07-16T00:00:35.710Z,10.20
2023-07-16T00:01:35.761Z,9.60
2023-07-16T00:02:35.750Z,8.50
2023-07-16T00:03:35.693Z,9.70
2023-07-16T00:04:35.781Z,9.20
2023-07-16T00:05:35.656Z,9.60
2023-07-16T00:06:35.649Z,9.90
2023-07-16T00:07:35.676Z,9.10
2023-07-16T00:08:35.633Z,10.00
2023-07-16T00:09:35.638Z,9.80
2023-07-16T00:10:35.612Z,10.30
2023-07-16T00:11:35.616Z,9.80
2023-07-16T00:12:35.618Z,9.90
2023-07-16T00:13:35.586Z,10.30
2023-07-16T00:14:35.557Z,10.20
2023-07-16T00:15:36.550Z,9.70
2023-07-16T00:16:35.899Z,7.90
2023-07-16T00:17:35.768Z,8.60
2023-07-16T00:18:35.533Z,8.40
2023-07-16T00:19:35.564Z,8.70
2023-07-16T00:20:35.556Z,8.90
2023-07-16T00:21:35.540Z,9.20
2023-07-16T00:22:35.590Z,8.90
2023-07-16T00:23:35.530Z,10.00
2023-07-16T00:24:35.493Z,10.10
2023-07-16T00:25:35.494Z,9.60
2023-07-16T00:26:35.484Z,10.00
2023-07-16T00:27:35.481Z,9.90
2023-07-16T00:28:35.430Z,9.40
2023-07-16T00:29:36.430Z,8.80
2023-07-16T00:30:35.516Z,8.80
2023-07-16T00:31:35.424Z,9.20
2023-07-16T00:32:35.426Z,8.70
2023-07-16T00:33:35.394Z,8.70
2023-07-16T00:34:35.386Z,8.70
2023-07-16T00:35:35.383Z,8.90
2023-07-16T00:36:35.360Z,8.80
2023-07-16T00:37:35.362Z,8.40
2023-07-16T00:38:35.332Z,8.30
2023-07-16T00:39:35.359Z,8.00
2023-07-16T00:40:35.355Z,8.30
2023-07-16T00:41:35.322Z,8.30
2023-07-16T00:42:35.299Z,8.50
2023-07-16T00:43:35.301Z,8.20
2023-07-16T00:44:35.313Z,8.30
2023-07-16T00:45:35.292Z,7.60
2023-07-16T00:46:35.290Z,7.70
2023-07-16T00:47:35.294Z,7.70
2023-07-16T00:48:35.237Z,8.00
2023-07-16T00:49:35.249Z,8.00
2023-07-16T00:50:35.235Z,7.60
2023-07-16T00:51:35.236Z,8.00
2023-07-16T00:52:35.205Z,7.50
2023-07-16T00:53:35.207Z,7.10
2023-07-16T00:54:35.205Z,7.10
2023-07-16T00:55:35.182Z,7.40
2023-07-16T00:56:35.183Z,7.50
2023-07-16T00:57:35.174Z,7.20
2023-07-16T00:58:35.157Z,7.00
2023-07-16T00:59:35.142Z,7.40
2023-07-16T01:00:35.127Z,8.20
2023-07-16T01:01:35.173Z,8.60
2023-07-16T01:02:35.116Z,8.80
2023-07-16T01:03:35.108Z,8.40
2023-07-16T01:04:35.152Z,8.80
2023-07-16T01:05:35.084Z,9.00
2023-07-16T01:06:35.138Z,8.00
2023-07-16T01:07:35.075Z,7.80
2023-07-16T01:08:35.109Z,7.30
2023-07-16T01:09:35.052Z,7.20
2023-07-16T01:10:35.031Z,7.30
2023-07-16T01:11:35.057Z,7.60
2023-07-16T01:12:35.027Z,7.60
2023-07-16T01:13:35.018Z,7.00
2023-07-16T01:14:34.984Z,7.10
2023-07-16T01:15:34.988Z,7.40
2023-07-16T01:16:35.002Z,7.90
2023-07-16T01:17:35.039Z,7.90
2023-07-16T01:18:34.961Z,9.00
2023-07-16T01:19:34.945Z,8.90
2023-07-16T01:20:34.945Z,9.10
2023-07-16T01:21:34.937Z,9.10
2023-07-16T01:22:35.036Z,9.20
2023-07-16T01:23:34.899Z,8.90
2023-07-16T01:24:34.895Z,9.20
2023-07-16T01:25:34.900Z,9.20
2023-07-16T01:26:34.939Z,8.70
2023-07-16T01:27:34.877Z,8.70
2023-07-16T01:28:34.859Z,8.70
2023-07-16T01:29:34.864Z,9.00
2023-07-16T01:30:34.864Z,8.60
2023-07-16T01:31:34.884Z,8.60
2023-07-16T01:32:34.858Z,7.90
2023-07-16T01:33:34.809Z,7.30
2023-07-16T01:34:34.787Z,7.50
2023-07-16T01:35:34.824Z,7.60
2023-07-16T01:36:34.788Z,7.70
2023-07-16T01:37:34.783Z,6.60
2023-07-16T01:38:34.758Z,6.50
2023-07-16T01:39:34.753Z,6.90
2023-07-16T01:40:34.753Z,6.80
2023-07-16T01:41:34.729Z,6.80
2023-07-16T01:42:34.736Z,7.70
2023-07-16T01:43:34.709Z,7.20
2023-07-16T01:44:34.883Z,7.10
2023-07-16T01:45:34.721Z,6.40
2023-07-16T01:46:34.751Z,5.80
2023-07-16T01:47:34.681Z,5.50
2023-07-16T01:48:34.671Z,6.10
2023-07-16T01:49:34.681Z,5.90
2023-07-16T01:50:34.656Z,7.00
2023-07-16T01:51:34.626Z,7.10
2023-07-16T01:52:34.621Z,7.50
2023-07-16T01:53:34.618Z,6.50
2023-07-16T01:54:34.620Z,5.40
2023-07-16T01:55:34.606Z,5.70
2023-07-16T01:56:34.607Z,5.20
2023-07-16T01:57:34.577Z,5.80
2023-07-16T01:58:34.576Z,5.10
2023-07-16T01:59:34.577Z,5.30
2023-07-16T02:00:34.543Z,5.40
2023-07-16T02:01:34.578Z,5.20
2023-07-16T02:02:34.592Z,4.80
2023-07-16T02:03:34.702Z,4.90
2023-07-16T02:04:34.513Z,4.70
2023-07-16T02:05:35.279Z,4.60
2023-07-16T02:06:34.478Z,4.50
2023-07-16T02:07:34.493Z,4.50
2023-07-16T02:08:34.491Z,4.40
2023-07-16T02:09:34.457Z,4.60
2023-07-16T02:10:34.450Z,4.90
2023-07-16T02:11:34.434Z,4.80
2023-07-16T02:12:34.440Z,4.50
2023-07-16T02:13:34.432Z,4.30
2023-07-16T02:14:34.471Z,4.20
2023-07-16T02:15:34.393Z,3.90
2023-07-16T02:16:34.431Z,4.20
2023-07-16T02:17:34.450Z,3.90
2023-07-16T02:18:34.367Z,3.70
2023-07-16T02:19:34.362Z,3.80
2023-07-16T02:20:34.341Z,3.90
2023-07-16T02:21:34.336Z,3.80
2023-07-16T02:22:34.436Z,3.90
2023-07-16T02:23:34.329Z,4.10
2023-07-16T02:24:34.300Z,4.00
2023-07-16T02:25:34.294Z,4.30
2023-07-16T02:26:34.320Z,4.10
2023-07-16T02:27:34.289Z,3.80
2023-07-16T02:28:34.267Z,4.10
2023-07-16T02:29:34.292Z,3.80
2023-07-16T02:30:34.239Z,3.90
2023-07-16T02:31:34.255Z,4.30
2023-07-16T02:32:34.236Z,4.00
2023-07-16T02:33:34.218Z,3.80
2023-07-16T02:34:34.189Z,3.90
2023-07-16T02:35:34.206Z,3.70
2023-07-16T02:36:34.209Z,3.80
2023-07-16T02:37:34.185Z,3.80
2023-07-16T02:38:34.156Z,3.60
2023-07-16T02:39:34.162Z,4.00
2023-07-16T02:40:34.173Z,4.00
2023-07-16T02:41:34.424Z,3.80
2023-07-16T02:42:34.122Z,3.70
2023-07-16T02:43:34.126Z,3.70
2023-07-16T02:44:34.125Z,3.50
2023-07-16T02:45:34.133Z,3.40
2023-07-16T02:46:34.127Z,3.60
2023-07-16T02:47:34.101Z,3.50
2023-07-16T02:48:34.085Z,3.60
2023-07-16T02:49:34.069Z,3.40
2023-07-16T02:50:34.081Z,3.80
2023-07-16T02:51:34.044Z,3.70
2023-07-16T02:52:34.034Z,3.70
2023-07-16T02:53:34.018Z,3.70
2023-07-16T02:54:34.034Z,3.40
2023-07-16T02:55:34.010Z,3.70
2023-07-16T02:56:34.006Z,3.80
2023-07-16T02:57:33.978Z,3.60
2023-07-16T02:58:33.984Z,3.60
2023-07-16T02:59:33.989Z,3.60
2023-07-16T03:00:33.956Z,3.90
2023-07-16T03:01:34.044Z,3.50
2023-07-16T03:02:34.055Z,3.40
2023-07-16T03:03:34.882Z,3.50
2023-07-16T03:04:33.946Z,3.70
2023-07-16T03:05:33.930Z,3.40
2023-07-16T03:06:33.895Z,3.70
2023-07-16T03:07:33.924Z,3.70
2023-07-16T03:08:33.897Z,3.70
2023-07-16T03:09:33.884Z,3.40
2023-07-16T03:10:33.883Z,3.40
2023-07-16T03:11:33.861Z,3.50
2023-07-16T03:12:33.934Z,3.70
2023-07-16T03:13:34.859Z,3.60
2023-07-16T03:14:33.812Z,3.40
2023-07-16T03:15:33.814Z,3.40
2023-07-16T03:16:33.809Z,3.20
2023-07-16T03:17:33.857Z,3.20
2023-07-16T03:18:33.806Z,3.20
2023-07-16T03:19:33.779Z,3.40
2023-07-16T03:20:33.757Z,3.60
2023-07-16T03:21:33.753Z,3.70
2023-07-16T03:22:33.771Z,3.40
2023-07-16T03:23:33.737Z,3.40
2023-07-16T03:24:33.710Z,4.10
2023-07-16T03:25:33.717Z,3.10
2023-07-16T03:26:33.688Z,3.50
2023-07-16T03:27:33.698Z,3.40
2023-07-16T03:28:40.799Z,3.60
2023-07-16T03:29:33.670Z,3.40
2023-07-16T03:30:33.647Z,3.30
2023-07-16T03:31:33.678Z,3.30
2023-07-16T03:32:50.052Z,3.10
2023-07-16T03:33:35.688Z,3.60
2023-07-16T03:34:33.615Z,3.30
2023-07-16T03:35:33.616Z,3.20
2023-07-16T03:36:33.611Z,3.70
2023-07-16T03:37:33.623Z,3.60
2023-07-16T03:38:33.575Z,3.20
2023-07-16T03:39:33.598Z,3.70
2023-07-16T03:40:33.556Z,3.20
2023-07-16T03:41:33.576Z,3.00
2023-07-16T03:42:33.542Z,2.90
2023-07-16T03:43:33.524Z,3.10
2023-07-16T03:44:33.522Z,3.40
2023-07-16T03:45:33.510Z,3.20
2023-07-16T03:46:33.512Z,3.80
2023-07-16T03:47:33.552Z,3.20
2023-07-16T03:48:33.546Z,3.10
2023-07-16T03:49:33.506Z,3.40
2023-07-16T03:50:33.485Z,3.70
2023-07-16T03:51:33.466Z,3.30
2023-07-16T03:52:33.447Z,3.20
2023-07-16T03:53:33.451Z,3.10
2023-07-16T03:54:33.426Z,3.30
2023-07-16T03:55:33.442Z,3.10
2023-07-16T03:56:33.404Z,3.20
2023-07-16T03:57:33.411Z,3.40
2023-07-16T03:58:33.377Z,3.40
2023-07-16T03:59:33.390Z,3.10
2023-07-16T04:00:33.392Z,3.20
2023-07-16T04:01:33.403Z,3.00
2023-07-16T04:02:33.352Z,3.00
2023-07-16T04:03:33.408Z,3.30
2023-07-16T04:04:33.346Z,3.40
2023-07-16T04:05:33.464Z,3.40
2023-07-16T04:06:33.303Z,3.10
2023-07-16T04:07:33.330Z,3.20
2023-07-16T04:08:33.299Z,3.30
2023-07-16T04:09:33.289Z,3.00
2023-07-16T04:10:33.266Z,3.30
2023-07-16T04:11:33.266Z,3.20
2023-07-16T04:12:33.259Z,3.00
2023-07-16T04:13:33.288Z,3.50
2023-07-16T04:14:33.252Z,3.20
2023-07-16T04:15:33.258Z,3.30
2023-07-16T04:16:33.280Z,3.40
2023-07-16T04:17:33.264Z,3.20
2023-07-16T04:18:33.446Z,3.30
2023-07-16T04:19:33.230Z,3.00
2023-07-16T04:20:33.200Z,3.10
2023-07-16T04:21:33.161Z,3.10
2023-07-16T04:22:33.211Z,3.10
2023-07-16T04:23:33.183Z,3.20
2023-07-16T04:24:33.138Z,3.30
2023-07-16T04:25:33.119Z,3.40
2023-07-16T04:26:33.111Z,3.10
2023-07-16T04:27:33.101Z,3.20
2023-07-16T04:28:33.119Z,3.00
2023-07-16T04:29:33.098Z,3.30
2023-07-16T04:30:33.179Z,3.50
2023-07-16T04:31:33.086Z,3.30
2023-07-16T04:32:33.090Z,2.90
2023-07-16T04:33:33.086Z,3.50
2023-07-16T04:34:33.040Z,3.20
2023-07-16T04:35:33.029Z,3.10
2023-07-16T04:36:33.004Z,3.20
2023-07-16T04:37:33.017Z,3.10
2023-07-16T04:38:33.007Z,3.00
2023-07-16T04:39:33.022Z,3.40
2023-07-16T04:40:32.976Z,3.20
2023-07-16T04:41:32.969Z,3.10
2023-07-16T04:42:32.980Z,3.10
2023-07-16T04:43:32.951Z,3.20
2023-07-16T04:44:32.950Z,2.70
2023-07-16T04:45:32.947Z,2.90
2023-07-16T04:46:32.969Z,2.70
2023-07-16T04:47:32.935Z,3.00
2023-07-16T04:48:32.894Z,3.00
2023-07-16T04:49:32.899Z,3.20
2023-07-16T04:50:32.868Z,3.00
2023-07-16T04:51:32.880Z,3.00
2023-07-16T04:52:32.870Z,2.70
2023-07-16T04:53:32.851Z,3.10
2023-07-16T04:54:32.838Z,3.20
2023-07-16T04:55:32.834Z,2.80
2023-07-16T04:56:33.042Z,2.80
2023-07-16T04:57:32.813Z,3.00
2023-07-16T04:58:32.813Z,2.90
2023-07-16T04:59:32.796Z,3.00
2023-07-16T05:00:32.798Z,2.90
2023-07-16T05:01:32.824Z,3.00
2023-07-16T05:02:32.794Z,2.70
2023-07-16T05:03:32.795Z,2.90
2023-07-16T05:04:32.937Z,2.90
2023-07-16T05:05:32.767Z,2.90
2023-07-16T05:06:32.731Z,2.90
2023-07-16T05:07:32.718Z,3.10
2023-07-16T05:08:32.725Z,3.10
2023-07-16T05:09:32.688Z,3.40
2023-07-16T05:10:32.725Z,2.80
2023-07-16T05:11:32.689Z,3.10
2023-07-16T05:12:32.680Z,3.10
2023-07-16T05:13:32.665Z,2.90
2023-07-16T05:14:32.676Z,2.60
2023-07-16T05:15:32.656Z,3.20
2023-07-16T05:16:32.748Z,2.90
2023-07-16T05:17:32.660Z,3.30
2023-07-16T05:18:32.623Z,3.00
2023-07-16T05:19:32.643Z,3.00
2023-07-16T05:20:32.598Z,3.20
2023-07-16T05:21:32.599Z,2.90
2023-07-16T05:22:32.615Z,2.80
2023-07-16T05:23:32.574Z,2.80
2023-07-16T05:24:32.576Z,3.10
2023-07-16T05:25:32.917Z,2.90
2023-07-16T05:26:33.543Z,3.00
2023-07-16T05:27:32.532Z,3.20
2023-07-16T05:28:32.925Z,2.70
2023-07-16T05:29:32.520Z,2.90
2023-07-16T05:30:32.486Z,2.90
2023-07-16T05:31:32.500Z,3.00
2023-07-16T05:32:32.553Z,2.50
2023-07-16T05:33:32.482Z,2.80
2023-07-16T05:34:32.459Z,2.90
2023-07-16T05:35:32.459Z,3.00
2023-07-16T05:36:32.456Z,3.20
2023-07-16T05:37:32.425Z,2.60
2023-07-16T05:38:32.435Z,2.70
2023-07-16T05:39:32.403Z,2.70
2023-07-16T05:40:32.409Z,2.80
2023-07-16T05:41:32.394Z,2.90
2023-07-16T05:42:32.394Z,2.90
2023-07-16T05:43:32.393Z,3.00
2023-07-16T05:44:32.368Z,2.90
2023-07-16T05:45:32.347Z,2.70
2023-07-16T05:46:32.418Z,3.30
2023-07-16T05:47:32.447Z,2.80
2023-07-16T05:48:32.521Z,2.80
2023-07-16T05:49:32.338Z,2.80
2023-07-16T05:50:32.308Z,2.70
2023-07-16T05:51:32.318Z,2.50
2023-07-16T05:52:32.322Z,2.70
2023-07-16T05:53:32.291Z,4.10
2023-07-16T05:54:32.268Z,2.90
2023-07-16T05:55:32.279Z,2.60
2023-07-16T05:56:32.296Z,2.40
2023-07-16T05:57:32.262Z,2.80
2023-07-16T05:58:32.294Z,2.60
2023-07-16T05:59:32.228Z,3.30
2023-07-16T06:00:32.205Z,2.90
2023-07-16T06:01:32.259Z,3.10
2023-07-16T06:02:32.208Z,2.70
2023-07-16T06:03:32.232Z,2.90
2023-07-16T06:04:32.166Z,2.80
2023-07-16T06:05:32.179Z,3.00
2023-07-16T06:06:32.173Z,2.70
2023-07-16T06:07:32.157Z,2.80
2023-07-16T06:08:32.881Z,2.50
2023-07-16T06:09:32.125Z,2.90
2023-07-16T06:10:32.135Z,2.70
2023-07-16T06:11:32.103Z,2.80
2023-07-16T06:12:32.091Z,2.90
2023-07-16T06:13:32.098Z,2.80
2023-07-16T06:14:32.078Z,2.70
2023-07-16T06:15:32.096Z,2.80
2023-07-16T06:16:32.131Z,3.00
2023-07-16T06:17:32.143Z,3.10
2023-07-16T06:18:32.040Z,2.90
2023-07-16T06:19:32.063Z,2.80
2023-07-16T06:20:32.039Z,2.80
2023-07-16T06:21:32.870Z,2.50
2023-07-16T06:22:32.055Z,2.60
2023-07-16T06:23:31.979Z,3.20
2023-07-16T06:24:31.991Z,3.30
2023-07-16T06:25:31.951Z,3.00
2023-07-16T06:26:31.955Z,3.00
2023-07-16T06:27:31.937Z,2.90
2023-07-16T06:28:31.934Z,2.90
2023-07-16T06:29:31.954Z,2.80
2023-07-16T06:30:31.920Z,2.70
2023-07-16T06:31:31.919Z,2.60
2023-07-16T06:32:31.958Z,2.70
2023-07-16T06:33:31.909Z,2.90
2023-07-16T06:34:31.900Z,2.60
2023-07-16T06:35:31.905Z,2.60
2023-07-16T06:36:31.853Z,3.20
2023-07-16T06:37:31.833Z,3.00
2023-07-16T06:38:31.873Z,2.90
2023-07-16T06:39:31.852Z,3.00
2023-07-16T06:40:31.829Z,2.90
2023-07-16T06:41:31.821Z,3.00
2023-07-16T06:42:31.794Z,2.90
2023-07-16T06:43:31.833Z,2.80
2023-07-16T06:44:31.788Z,2.80
2023-07-16T06:45:34.442Z,2.80
2023-07-16T06:46:31.782Z,2.80
2023-07-16T06:47:31.799Z,2.90
2023-07-16T06:48:31.767Z,2.90
2023-07-16T06:49:31.741Z,2.90
2023-07-16T06:50:31.723Z,3.30
2023-07-16T06:51:31.722Z,2.90
2023-07-16T06:52:31.750Z,3.20
2023-07-16T06:53:31.692Z,3.00
2023-07-16T06:54:31.684Z,3.00
2023-07-16T06:55:32.681Z,3.10
2023-07-16T06:56:31.693Z,2.80
2023-07-16T06:57:31.674Z,2.70
2023-07-16T06:58:31.668Z,3.10
2023-07-16T06:59:31.644Z,2.80
2023-07-16T07:00:31.671Z,2.80
2023-07-16T07:01:31.758Z,3.10
2023-07-16T07:02:31.631Z,3.00
2023-07-16T07:03:31.646Z,2.90
2023-07-16T07:04:31.593Z,3.10
2023-07-16T07:05:31.577Z,3.30
2023-07-16T07:06:31.586Z,2.80
2023-07-16T07:07:31.564Z,3.10
2023-07-16T07:08:31.579Z,3.10
2023-07-16T07:09:31.543Z,2.90
2023-07-16T07:10:31.543Z,3.60
2023-07-16T07:11:31.554Z,3.50
2023-07-16T07:12:31.524Z,3.30
2023-07-16T07:13:31.496Z,3.20
2023-07-16T07:14:32.509Z,2.90
2023-07-16T07:15:31.504Z,3.30
2023-07-16T07:16:31.549Z,3.00
2023-07-16T07:17:31.494Z,2.90
2023-07-16T07:18:31.589Z,3.00
2023-07-16T07:19:31.456Z,2.90
2023-07-16T07:20:31.453Z,2.90
2023-07-16T07:21:31.440Z,3.00
2023-07-16T07:22:31.535Z,3.10
2023-07-16T07:23:31.449Z,3.30
2023-07-16T07:24:31.392Z,3.20
2023-07-16T07:25:31.434Z,2.80
2023-07-16T07:26:31.374Z,3.20
2023-07-16T07:27:31.374Z,2.90
2023-07-16T07:28:31.431Z,2.80
2023-07-16T07:29:31.365Z,3.10
2023-07-16T07:30:31.367Z,3.50
2023-07-16T07:31:31.374Z,3.10
2023-07-16T07:32:31.336Z,2.70
2023-07-16T07:33:32.314Z,2.90
2023-07-16T07:34:31.323Z,3.10
2023-07-16T07:35:31.302Z,3.00
2023-07-16T07:36:31.299Z,2.90
2023-07-16T07:37:31.292Z,3.00
2023-07-16T07:38:31.294Z,2.80
2023-07-16T07:39:31.267Z,2.90
2023-07-16T07:40:31.239Z,2.80
2023-07-16T07:41:31.231Z,3.60
2023-07-16T07:42:31.382Z,3.00
2023-07-16T07:43:31.247Z,2.80
2023-07-16T07:44:31.209Z,2.60
2023-07-16T07:45:31.197Z,2.80
2023-07-16T07:46:31.207Z,3.00
2023-07-16T07:47:31.217Z,3.20
2023-07-16T07:48:31.180Z,2.90
2023-07-16T07:49:31.163Z,2.80
2023-07-16T07:50:31.166Z,3.00
2023-07-16T07:51:31.174Z,2.80
2023-07-16T07:52:31.160Z,3.00
2023-07-16T07:53:31.147Z,3.20
2023-07-16T07:54:31.120Z,3.10
2023-07-16T07:55:31.097Z,2.90
2023-07-16T07:56:31.076Z,2.90
2023-07-16T07:57:31.083Z,3.20
2023-07-16T07:58:31.069Z,3.00
2023-07-16T07:59:31.051Z,3.20
2023-07-16T08:00:31.059Z,3.00
2023-07-16T08:01:31.042Z,3.00
2023-07-16T08:02:31.077Z,3.80
2023-07-16T08:03:31.206Z,3.10
2023-07-16T08:04:31.145Z,3.00
2023-07-16T08:05:31.001Z,3.10
2023-07-16T08:06:30.990Z,3.00
2023-07-16T08:07:30.996Z,3.30
2023-07-16T08:08:30.982Z,3.20
2023-07-16T08:09:30.959Z,3.10
2023-07-16T08:10:30.967Z,2.90
2023-07-16T08:11:30.953Z,2.80
2023-07-16T08:12:30.928Z,3.20
2023-07-16T08:13:30.934Z,2.80
2023-07-16T08:14:30.895Z,3.00
2023-07-16T08:15:30.925Z,3.10
2023-07-16T08:16:30.908Z,3.10
2023-07-16T08:17:30.954Z,3.00
2023-07-16T08:18:30.915Z,3.10
2023-07-16T08:19:30.869Z,2.90
2023-07-16T08:20:30.886Z,2.70
2023-07-16T08:21:30.858Z,3.10
2023-07-16T08:22:30.855Z,3.10
2023-07-16T08:23:30.822Z,3.00
2023-07-16T08:24:30.828Z,2.90
2023-07-16T08:25:30.833Z,2.90
2023-07-16T08:26:30.813Z,2.90
2023-07-16T08:27:30.793Z,2.90
2023-07-16T08:28:30.791Z,3.30
2023-07-16T08:29:30.828Z,3.00
2023-07-16T08:30:30.783Z,2.80
2023-07-16T08:31:30.845Z,3.30
2023-07-16T08:32:30.824Z,3.40
2023-07-16T08:33:30.735Z,3.10
2023-07-16T08:34:30.741Z,2.70
2023-07-16T08:35:30.706Z,3.10
2023-07-16T08:36:30.717Z,3.20
2023-07-16T08:37:30.686Z,3.50
2023-07-16T08:38:30.686Z,3.20
2023-07-16T08:39:30.702Z,3.30
2023-07-16T08:40:30.683Z,3.30
2023-07-16T08:41:30.658Z,3.30
2023-07-16T08:42:30.686Z,3.10
2023-07-16T08:43:30.652Z,3.60
2023-07-16T08:44:30.668Z,3.20
2023-07-16T08:45:30.633Z,3.20
2023-07-16T08:46:30.645Z,3.30
2023-07-16T08:47:30.645Z,3.10
2023-07-16T08:48:30.604Z,3.30
2023-07-16T08:49:30.596Z,3.30
2023-07-16T08:50:32.731Z,3.20
2023-07-16T08:51:30.564Z,3.20
2023-07-16T08:52:30.575Z,3.20
2023-07-16T08:53:30.580Z,3.40
2023-07-16T08:54:30.527Z,2.90
2023-07-16T08:55:30.527Z,3.00
2023-07-16T08:56:30.546Z,3.50
2023-07-16T08:57:30.539Z,3.40
2023-07-16T08:58:30.523Z,3.40
2023-07-16T08:59:30.507Z,3.10
2023-07-16T09:00:30.501Z,3.40
2023-07-16T09:01:30.512Z,3.40
2023-07-16T09:02:30.524Z,3.60
2023-07-16T09:03:30.468Z,3.50
2023-07-16T09:04:30.481Z,3.20
2023-07-16T09:05:39.550Z,3.00
2023-07-16T09:06:32.482Z,3.10
2023-07-16T09:07:30.431Z,3.30
2023-07-16T09:08:30.425Z,3.50
2023-07-16T09:09:30.413Z,3.50
2023-07-16T09:10:30.401Z,3.10
2023-07-16T09:11:30.400Z,3.10
2023-07-16T09:12:30.399Z,3.40
2023-07-16T09:13:30.370Z,3.00
2023-07-16T09:14:30.343Z,3.10
2023-07-16T09:15:30.353Z,3.60
2023-07-16T09:16:30.358Z,3.30
2023-07-16T09:17:30.386Z,3.10
2023-07-16T09:18:30.327Z,3.00
2023-07-16T09:19:30.310Z,3.30
2023-07-16T09:20:30.289Z,3.10
2023-07-16T09:21:30.319Z,3.00
2023-07-16T09:22:30.278Z,3.20
2023-07-16T09:23:30.280Z,3.50
2023-07-16T09:24:30.276Z,3.20
2023-07-16T09:25:30.310Z,2.90
2023-07-16T09:26:30.283Z,3.40
2023-07-16T09:27:30.227Z,3.30
2023-07-16T09:28:40.848Z,3.40
2023-07-16T09:29:30.212Z,3.10
2023-07-16T09:30:30.242Z,3.40
2023-07-16T09:31:31.293Z,3.20
2023-07-16T09:32:30.218Z,3.70
2023-07-16T09:33:30.151Z,3.30
2023-07-16T09:34:30.175Z,2.90
2023-07-16T09:35:30.179Z,3.00
2023-07-16T09:36:30.150Z,3.20
2023-07-16T09:37:30.119Z,3.20
2023-07-16T09:38:30.122Z,3.30
2023-07-16T09:39:30.117Z,3.20
2023-07-16T09:40:30.126Z,3.10
2023-07-16T09:41:30.096Z,3.20
2023-07-16T09:42:30.089Z,3.60
2023-07-16T09:43:30.067Z,3.50
2023-07-16T09:44:30.090Z,3.30
2023-07-16T09:45:30.076Z,3.40
2023-07-16T09:46:30.094Z,3.20
2023-07-16T09:47:30.067Z,3.30
2023-07-16T09:48:30.048Z,3.40
2023-07-16T09:49:30.044Z,3.40
2023-07-16T09:50:29.999Z,3.50
2023-07-16T09:51:29.999Z,3.40
2023-07-16T09:52:29.997Z,3.40
2023-07-16T09:53:29.986Z,3.40
2023-07-16T09:54:29.970Z,3.30
2023-07-16T09:55:29.954Z,3.60
2023-07-16T09:56:29.969Z,3.30
2023-07-16T09:57:29.938Z,3.50
2023-07-16T09:58:29.951Z,3.70
2023-07-16T09:59:29.920Z,3.40
2023-07-16T10:00:29.896Z,3.60
2023-07-16T10:01:30.101Z,3.70
2023-07-16T10:02:29.953Z,3.30
2023-07-16T10:03:29.888Z,3.80
2023-07-16T10:04:29.879Z,3.10
2023-07-16T10:05:29.856Z,3.40
2023-07-16T10:06:29.837Z,3.50
2023-07-16T10:07:29.843Z,3.30
2023-07-16T10:08:29.852Z,3.50
2023-07-16T10:09:29.828Z,3.40
2023-07-16T10:10:29.797Z,3.50
2023-07-16T10:11:29.898Z,3.50
2023-07-16T10:12:29.859Z,4.00
2023-07-16T10:13:29.769Z,3.80
2023-07-16T10:14:29.771Z,4.00
2023-07-16T10:15:29.767Z,3.50
2023-07-16T10:16:29.798Z,3.70
2023-07-16T10:17:29.768Z,3.50
2023-07-16T10:18:29.714Z,3.50
2023-07-16T10:19:29.716Z,3.40
2023-07-16T10:20:29.729Z,3.50
2023-07-16T10:21:29.720Z,3.20
2023-07-16T10:22:29.692Z,3.30
2023-07-16T10:23:29.688Z,3.40
2023-07-16T10:24:29.679Z,3.60
2023-07-16T10:25:29.681Z,3.30
2023-07-16T10:26:29.663Z,3.60
2023-07-16T10:27:29.660Z,3.50
2023-07-16T10:28:29.649Z,3.60
2023-07-16T10:29:29.627Z,3.30
2023-07-16T10:30:29.632Z,3.50
2023-07-16T10:31:29.639Z,3.50
2023-07-16T10:32:29.675Z,3.20
2023-07-16T10:33:29.623Z,3.50
2023-07-16T10:34:29.599Z,3.40
2023-07-16T10:35:29.605Z,3.30
2023-07-16T10:36:29.595Z,3.50
2023-07-16T10:37:29.576Z,3.30
2023-07-16T10:38:29.546Z,3.80
2023-07-16T10:39:29.555Z,3.30
2023-07-16T10:40:29.553Z,3.40
2023-07-16T10:41:29.504Z,3.50
2023-07-16T10:42:29.514Z,3.40
2023-07-16T10:43:29.493Z,3.20
2023-07-16T10:44:29.496Z,3.50
2023-07-16T10:45:29.485Z,3.20
2023-07-16T10:46:29.553Z,3.50
2023-07-16T10:47:29.517Z,3.50
2023-07-16T10:48:29.459Z,3.30
2023-07-16T10:49:29.495Z,3.60
2023-07-16T10:50:29.435Z,3.20
2023-07-16T10:51:29.454Z,3.30
2023-07-16T10:52:29.413Z,3.20
2023-07-16T10:53:29.423Z,3.60
2023-07-16T10:54:29.395Z,3.50
2023-07-16T10:55:29.379Z,3.20
2023-07-16T10:56:29.376Z,3.20
2023-07-16T10:57:29.353Z,3.00
2023-07-16T10:58:29.365Z,3.50
2023-07-16T10:59:29.334Z,2.80
2023-07-16T11:00:29.349Z,3.50
2023-07-16T11:01:29.349Z,3.40
2023-07-16T11:02:29.457Z,3.30
2023-07-16T11:03:29.461Z,3.50
2023-07-16T11:04:29.298Z,3.30
2023-07-16T11:05:29.279Z,3.50
2023-07-16T11:06:29.282Z,3.30
2023-07-16T11:07:29.287Z,3.30
2023-07-16T11:08:29.256Z,3.50
2023-07-16T11:09:29.254Z,3.10
2023-07-16T11:10:29.244Z,3.50
2023-07-16T11:11:29.245Z,3.50
2023-07-16T11:12:29.252Z,3.30
2023-07-16T11:13:29.222Z,3.30
2023-07-16T11:14:29.200Z,3.40
2023-07-16T11:15:29.201Z,3.70
2023-07-16T11:16:29.244Z,3.40
2023-07-16T11:17:29.241Z,3.60
2023-07-16T11:18:29.168Z,3.60
2023-07-16T11:19:29.187Z,3.50
2023-07-16T11:20:29.157Z,3.60
2023-07-16T11:21:29.150Z,3.30
2023-07-16T11:22:29.180Z,3.30
2023-07-16T11:23:29.156Z,3.50
2023-07-16T11:24:29.127Z,4.10
2023-07-16T11:25:29.112Z,3.70
2023-07-16T11:26:29.105Z,3.50
2023-07-16T11:27:29.115Z,3.50
2023-07-16T11:28:29.069Z,3.80
2023-07-16T11:29:29.066Z,3.50
2023-07-16T11:30:29.109Z,3.30
2023-07-16T11:31:29.083Z,3.30
2023-07-16T11:32:29.197Z,3.50
2023-07-16T11:33:29.049Z,3.50
2023-07-16T11:34:29.012Z,3.30
2023-07-16T11:35:29.041Z,3.40
2023-07-16T11:36:29.021Z,3.60
2023-07-16T11:37:28.988Z,3.70
2023-07-16T11:38:28.999Z,3.70
2023-07-16T11:39:29.009Z,3.80
2023-07-16T11:40:28.978Z,3.60
2023-07-16T11:41:28.953Z,3.50
2023-07-16T11:42:28.976Z,3.40
2023-07-16T11:43:28.940Z,3.40
2023-07-16T11:44:28.976Z,3.50
2023-07-16T11:45:28.920Z,3.50
2023-07-16T11:46:28.968Z,3.40
2023-07-16T11:47:28.986Z,3.40
2023-07-16T11:48:28.970Z,3.70
2023-07-16T11:49:28.920Z,3.60
2023-07-16T11:50:28.881Z,3.20
2023-07-16T11:51:28.860Z,3.70
2023-07-16T11:52:28.854Z,3.40
2023-07-16T11:53:28.867Z,3.20
2023-07-16T11:54:28.869Z,3.80
2023-07-16T11:55:28.855Z,3.50
2023-07-16T11:56:28.816Z,3.60
2023-07-16T11:57:28.822Z,3.50
2023-07-16T11:58:28.829Z,3.50
2023-07-16T11:59:28.790Z,3.60
2023-07-16T12:00:28.786Z,3.40
2023-07-16T12:01:28.827Z,3.60
2023-07-16T12:02:28.925Z,3.50
2023-07-16T12:03:28.993Z,3.80
2023-07-16T12:04:28.740Z,3.80
2023-07-16T12:05:46.343Z,3.50
2023-07-16T12:06:30.727Z,3.40
2023-07-16T12:07:28.732Z,3.70
2023-07-16T12:08:28.737Z,3.50
2023-07-16T12:09:28.719Z,3.50
2023-07-16T12:10:28.680Z,3.20
2023-07-16T12:11:28.684Z,3.30
2023-07-16T12:12:28.699Z,3.50
2023-07-16T12:13:28.674Z,3.60
2023-07-16T12:14:28.656Z,3.30
2023-07-16T12:15:28.652Z,3.40
2023-07-16T12:16:28.687Z,3.20
2023-07-16T12:17:28.781Z,3.60
2023-07-16T12:18:28.611Z,3.70
2023-07-16T12:19:28.610Z,3.70
2023-07-16T12:20:28.600Z,3.40
2023-07-16T12:21:28.675Z,3.80
2023-07-16T12:22:28.651Z,3.40
2023-07-16T12:23:28.574Z,3.50
2023-07-16T12:24:28.567Z,3.60
2023-07-16T12:25:28.550Z,3.60
2023-07-16T12:26:28.556Z,3.50
2023-07-16T12:27:28.572Z,3.10
2023-07-16T12:28:28.535Z,3.50
2023-07-16T12:29:28.524Z,3.20
2023-07-16T12:30:28.519Z,3.50
2023-07-16T12:31:28.568Z,3.40
2023-07-16T12:32:28.503Z,3.70
2023-07-16T12:33:28.467Z,3.50
2023-07-16T12:34:28.479Z,4.00
2023-07-16T12:35:28.499Z,3.40
2023-07-16T12:36:28.459Z,3.50
2023-07-16T12:37:28.461Z,3.80
2023-07-16T12:38:28.443Z,3.60
2023-07-16T12:39:28.424Z,3.60
2023-07-16T12:40:28.425Z,3.70
2023-07-16T12:41:28.411Z,3.60
2023-07-16T12:42:28.455Z,3.30
2023-07-16T12:43:28.410Z,3.70
2023-07-16T12:44:28.427Z,3.50
2023-07-16T12:45:28.390Z,3.70
2023-07-16T12:46:28.408Z,3.30
2023-07-16T12:47:28.396Z,3.70
2023-07-16T12:48:28.343Z,3.40
2023-07-16T12:49:28.346Z,3.40
2023-07-16T12:50:28.317Z,3.70
2023-07-16T12:51:28.333Z,3.70
2023-07-16T12:52:28.298Z,3.40
2023-07-16T12:53:28.299Z,3.60
2023-07-16T12:54:28.329Z,3.60
2023-07-16T12:55:28.285Z,3.60
2023-07-16T12:56:28.265Z,3.50
2023-07-16T12:57:28.258Z,3.80
2023-07-16T12:58:28.275Z,3.80
2023-07-16T12:59:28.253Z,3.50
2023-07-16T13:00:28.272Z,3.70
2023-07-16T13:01:28.286Z,3.60
2023-07-16T13:02:28.324Z,3.70
2023-07-16T13:03:28.256Z,3.60
2023-07-16T13:04:28.194Z,3.50
2023-07-16T13:05:28.206Z,3.60
2023-07-16T13:06:28.173Z,3.60
2023-07-16T13:07:28.206Z,3.70
2023-07-16T13:08:28.224Z,3.70
2023-07-16T13:09:28.161Z,3.60
2023-07-16T13:10:28.139Z,3.60
2023-07-16T13:11:28.135Z,4.30
2023-07-16T13:12:28.137Z,3.60
2023-07-16T13:13:28.115Z,4.00
2023-07-16T13:14:28.102Z,3.60
2023-07-16T13:15:28.099Z,3.70
2023-07-16T13:16:28.109Z,4.00
2023-07-16T13:17:28.094Z,4.10
2023-07-16T13:18:28.058Z,4.00